Time;durP1;ratioP1;P1;durP2;ratioP2;P2;SDS_P1;SDS_P2;PMS_P1;PMS_P2;Temp;Humidity;BMP_temperature;BMP_pressure;BME280_temperature;BME280_humidity;BME280_pressure;Samples;Min_cycle;Max_cycle;Signal;HPM_P1;HPM_P2
2022/05/15 10:43:27;;;;;;;7.50;6.30;;;28.50;99.90;;;;;;5023348;24;20481;-87
2022/05/15 10:46:33;;;;;;;7.63;6.70;;;28.80;99.90;;;;;;4767159;30;20047;-93
2022/05/15 10:49:10;;;;;;;8.07;6.57;;;28.50;99.90;;;;;;4755169;30;20145;-92
2022/05/15 10:51:49;;;;;;;8.30;6.28;;;28.20;99.90;;;;;;4737739;30;20051;-89
2022/05/15 10:57:29;;;;;;;8.90;6.70;;;28.20;99.90;;;;;;4737344;30;20131;-90
2022/05/15 11:00:05;;;;;;;7.45;6.82;;;28.70;99.90;;;;;;4722877;30;20040;-90
2022/05/15 11:02:56;;;;;;;7.13;6.43;;;28.50;99.90;;;;;;4722776;30;20036;-90
2022/05/15 11:05:58;;;;;;;7.88;6.38;;;28.80;99.90;;;;;;4737286;30;20059;-91
2022/05/15 11:08:28;;;;;;;6.95;6.30;;;28.90;99.90;;;;;;4734246;30;20051;-90
2022/05/15 11:11:38;;;;;;;10.23;6.53;;;28.10;99.90;;;;;;4722300;30;20533;-91
2022/05/15 11:14:12;;;;;;;9.57;6.25;;;28.20;99.90;;;;;;4737165;30;20606;-92
2022/05/15 11:17:02;;;;;;;9.18;6.10;;;28.30;99.90;;;;;;4722715;30;20054;-92
2022/05/15 11:19:30;;;;;;;7.50;6.30;;;28.10;99.90;;;;;;4731607;30;20487;-91
2022/05/15 11:22:15;;;;;;;7.30;6.30;;;27.80;99.90;;;;;;4724462;30;20040;-91
2022/05/15 11:25:07;;;;;;;7.47;6.32;;;28.40;99.90;;;;;;4724088;30;20039;-92
2022/05/15 11:27:55;;;;;;;8.30;5.90;;;28.30;99.90;;;;;;4742242;30;20028;-92
2022/05/15 11:30:33;;;;;;;8.98;6.30;;;28.60;99.90;;;;;;4741629;30;20405;-92
2022/05/15 11:33:28;;;;;;;9.43;6.80;;;29.00;99.90;;;;;;4756437;30;20046;-92
2022/05/15 11:36:13;;;;;;;8.07;7.05;;;28.70;99.90;;;;;;4755409;30;20502;-91
2022/05/15 11:39:01;;;;;;;7.47;6.28;;;28.00;99.90;;;;;;4755304;30;20036;-91
2022/05/15 11:41:37;;;;;;;8.60;7.38;;;28.10;99.90;;;;;;4740431;30;20039;-91
2022/05/15 11:44:10;;;;;;;9.13;7.55;;;28.40;99.90;;;;;;4755235;30;20039;-89
2022/05/15 11:46:46;;;;;;;9.18;7.15;;;28.50;99.90;;;;;;4740464;30;20123;-90
2022/05/15 11:49:29;;;;;;;8.02;7.20;;;28.30;99.90;;;;;;4755209;30;20043;-92
2022/05/15 11:52:16;;;;;;;9.35;7.47;;;27.90;99.90;;;;;;4756530;30;20032;-91
2022/05/15 11:54:48;;;;;;;9.18;6.93;;;27.90;99.90;;;;;;4758326;30;20032;-91
2022/05/15 11:57:44;;;;;;;7.82;6.97;;;27.90;99.90;;;;;;4758497;30;20046;-92
2022/05/15 12:00:25;;;;;;;8.20;7.40;;;28.40;99.90;;;;;;4758375;30;20058;-91
2022/05/15 12:02:57;;;;;;;8.05;7.35;;;28.20;99.90;;;;;;4743851;30;20035;-92
2022/05/15 12:05:38;;;;;;;8.65;6.43;;;29.00;99.90;;;;;;4758378;30;20093;-91
2022/05/15 12:08:29;;;;;;;7.22;5.97;;;28.60;99.90;;;;;;4760077;30;20070;-92
2022/05/15 12:10:58;;;;;;;8.85;7.57;;;28.90;99.90;;;;;;4771342;30;20051;-91
2022/05/15 12:13:34;;;;;;;7.00;6.40;;;28.80;99.90;;;;;;4760586;30;20074;-92
2022/05/15 12:16:19;;;;;;;10.95;6.63;;;28.50;99.90;;;;;;4744776;30;20093;-93
2022/05/15 12:18:53;;;;;;;12.30;6.72;;;28.30;99.90;;;;;;4758744;30;20043;-93
2022/05/15 12:21:35;;;;;;;6.97;6.03;;;28.00;99.90;;;;;;4758789;30;20040;-93
2022/05/15 12:27:07;;;;;;;11.35;6.60;;;28.40;99.90;;;;;;4758849;30;20036;-93
2022/05/15 12:29:55;;;;;;;8.20;6.65;;;28.40;99.90;;;;;;4758763;30;20043;-92
2022/05/15 12:32:52;;;;;;;11.77;7.80;;;28.50;99.90;;;;;;4743384;30;20043;-90
2022/05/15 12:35:36;;;;;;;8.88;6.85;;;28.70;99.90;;;;;;4764278;30;20055;-90
2022/05/15 12:38:12;;;;;;;7.55;6.85;;;28.60;99.90;;;;;;4766332;30;20482;-90
2022/05/15 12:40:57;;;;;;;11.45;6.90;;;28.70;99.90;;;;;;4758141;30;20126;-91
2022/05/15 12:43:35;;;;;;;7.05;6.35;;;27.90;99.90;;;;;;4742157;30;20059;-91
2022/05/15 12:46:02;;;;;;;11.40;6.82;;;28.20;99.90;;;;;;4726038;30;20071;-91
2022/05/15 12:48:34;;;;;;;8.55;6.45;;;28.60;99.90;;;;;;4725664;30;20028;-91
2022/05/15 12:51:09;;;;;;;6.78;6.18;;;28.60;99.90;;;;;;4740224;30;20046;-92
2022/05/15 12:53:44;;;;;;;6.82;6.22;;;28.50;99.90;;;;;;4739847;30;20453;-91
2022/05/15 12:56:35;;;;;;;8.88;6.65;;;28.90;99.90;;;;;;4739970;30;20044;-91
2022/05/15 12:59:18;;;;;;;7.28;5.97;;;28.50;99.90;;;;;;4725616;30;20040;-92
2022/05/15 13:01:47;;;;;;;7.68;5.47;;;28.70;99.90;;;;;;4739847;30;20047;-91
2022/05/15 13:04:23;;;;;;;8.73;4.70;;;28.60;99.90;;;;;;4724728;30;20477;-90
2022/05/15 13:06:57;;;;;;;6.90;5.13;;;28.50;99.90;;;;;;4740262;30;20060;-93
2022/05/15 13:09:30;;;;;;;7.55;5.88;;;28.60;99.90;;;;;;4725634;30;20059;-92
2022/05/15 13:12:00;;;;;;;8.18;4.88;;;28.30;99.90;;;;;;4739816;30;20036;-92
2022/05/15 13:14:46;;;;;;;7.85;5.40;;;28.40;99.90;;;;;;4725457;30;20036;-92
2022/05/15 13:17:19;;;;;;;6.28;4.95;;;28.60;99.90;;;;;;4739434;30;20052;-92
2022/05/15 13:19:52;;;;;;;6.07;5.03;;;28.70;99.90;;;;;;4725174;30;20072;-92
2022/05/15 13:22:25;;;;;;;5.63;5.05;;;28.80;99.90;;;;;;4739593;30;20047;-90
2022/05/15 13:25:13;;;;;;;6.65;5.15;;;28.80;99.90;;;;;;4739221;30;20043;-91
2022/05/15 13:27:43;;;;;;;10.00;5.18;;;28.90;99.90;;;;;;4739451;30;20503;-92
2022/05/15 13:30:24;;;;;;;8.32;4.95;;;28.70;99.90;;;;;;4739252;30;20040;-90
2022/05/15 13:32:57;;;;;;;9.50;5.85;;;28.40;99.90;;;;;;4739510;30;20035;-91
2022/05/15 13:35:27;;;;;;;10.25;6.15;;;28.20;99.90;;;;;;4739005;30;20036;-92
2022/05/15 13:37:55;;;;;;;7.70;5.78;;;28.30;99.90;;;;;;4724721;30;20102;-92
2022/05/15 13:43:25;;;;;;;10.77;4.57;;;28.30;99.90;;;;;;4779132;30;20143;-90
2022/05/15 13:46:08;;;;;;;6.88;4.32;;;28.20;99.90;;;;;;4756821;30;20028;-90
2022/05/15 13:48:59;;;;;;;12.75;5.30;;;28.30;99.90;;;;;;4756740;30;20042;-91
2022/05/15 13:51:51;;;;;;;5.60;4.85;;;28.20;99.90;;;;;;4756765;30;20036;-90
2022/05/15 13:54:29;;;;;;;9.35;4.60;;;28.10;99.90;;;;;;4771340;30;20051;-90
2022/05/15 13:56:56;;;;;;;7.95;5.57;;;28.10;99.90;;;;;;4758002;30;20498;-91
2022/05/15 13:59:41;;;;;;;7.45;5.30;;;28.00;99.90;;;;;;4757791;30;20032;-92
2022/05/15 14:02:22;;;;;;;7.05;4.47;;;28.00;99.90;;;;;;4772486;30;20035;-91
2022/05/15 14:04:57;;;;;;;6.40;4.60;;;28.20;99.90;;;;;;4771536;30;20126;-90
2022/05/15 14:07:27;;;;;;;6.63;5.03;;;28.20;99.90;;;;;;4741563;30;20510;-91
2022/05/15 14:09:57;;;;;;;7.65;4.65;;;28.30;99.90;;;;;;4771017;30;20024;-91
2022/05/15 14:12:48;;;;;;;5.43;4.55;;;28.20;99.90;;;;;;4756238;30;20036;-91
2022/05/15 14:15:33;;;;;;;7.30;4.72;;;28.20;99.90;;;;;;4755594;30;20109;-91
2022/05/15 14:18:04;;;;;;;7.30;4.72;;;27.90;99.90;;;;;;4756157;30;20081;-92
2022/05/15 14:20:35;;;;;;;6.20;5.05;;;27.90;99.90;;;;;;4756241;30;20089;-91
2022/05/15 14:23:02;;;;;;;8.95;5.18;;;27.80;99.90;;;;;;4756235;30;20040;-92
2022/05/15 14:25:29;;;;;;;6.47;4.82;;;27.90;99.90;;;;;;4756086;30;20032;-91
2022/05/15 14:27:57;;;;;;;5.60;4.80;;;27.70;99.90;;;;;;4750790;30;20043;-90
2022/05/15 14:30:25;;;;;;;9.20;5.30;;;27.70;99.90;;;;;;4755990;30;20036;-91
2022/05/15 14:32:56;;;;;;;5.20;4.70;;;27.70;99.90;;;;;;4770772;30;20043;-91
2022/05/15 14:35:26;;;;;;;10.77;7.30;;;27.80;99.90;;;;;;4755650;30;20127;-92
2022/05/15 14:37:57;;;;;;;6.68;4.88;;;27.90;99.90;;;;;;4755891;30;20043;-92
2022/05/15 14:40:24;;;;;;;7.00;5.60;;;27.80;99.90;;;;;;4755868;30;20032;-90
2022/05/15 14:42:50;;;;;;;8.73;5.10;;;27.90;99.90;;;;;;4743922;30;20514;-90
2022/05/15 14:45:17;;;;;;;6.93;4.82;;;27.90;99.90;;;;;;4737905;30;20625;-91
2022/05/15 14:47:53;;;;;;;6.85;5.00;;;27.90;99.90;;;;;;4738012;30;20024;-92
2022/05/15 14:50:20;;;;;;;5.95;5.05;;;28.00;99.90;;;;;;4752527;30;20570;-92
2022/05/15 14:52:51;;;;;;;5.60;4.93;;;27.90;99.90;;;;;;4723665;30;20032;-91
2022/05/15 14:58:03;;;;;;;7.00;4.72;;;27.80;99.90;;;;;;4746021;30;20099;-89
2022/05/15 15:00:31;;;;;;;7.97;4.80;;;27.80;99.90;;;;;;4748440;30;20071;-91
2022/05/15 15:02:58;;;;;;;6.90;5.05;;;27.80;99.90;;;;;;4738981;30;20143;-91
2022/05/15 15:05:24;;;;;;;8.05;5.57;;;28.00;99.90;;;;;;4723109;30;20043;-91
2022/05/15 15:07:51;;;;;;;8.38;5.55;;;27.80;99.90;;;;;;4752383;30;20111;-90
2022/05/15 15:10:17;;;;;;;7.25;4.93;;;27.80;99.90;;;;;;4752135;30;20555;-90
2022/05/15 15:12:44;;;;;;;10.57;5.30;;;27.70;99.90;;;;;;4752213;30;20032;-89
2022/05/15 15:15:11;;;;;;;6.05;4.55;;;27.50;99.90;;;;;;4737461;30;20040;-91
2022/05/15 15:17:38;;;;;;;9.93;4.95;;;27.40;99.90;;;;;;4723052;30;20043;-90
2022/05/15 15:20:05;;;;;;;5.78;4.90;;;27.50;99.90;;;;;;4737658;30;20040;-91
2022/05/15 15:22:31;;;;;;;9.02;5.00;;;27.60;99.90;;;;;;4722916;30;20032;-90
2022/05/15 15:24:57;;;;;;;6.50;5.13;;;27.60;99.90;;;;;;4723126;30;20120;-90
2022/05/15 15:27:24;;;;;;;6.40;5.15;;;27.40;99.90;;;;;;4754278;30;20539;-90
2022/05/15 15:29:50;;;;;;;8.48;4.93;;;27.10;99.90;;;;;;4741158;30;20119;-90
2022/05/15 15:32:17;;;;;;;6.28;4.53;;;27.00;99.90;;;;;;4741107;30;20036;-92
2022/05/15 15:34:43;;;;;;;7.78;4.90;;;27.00;99.90;;;;;;4756982;30;20025;-91
2022/05/15 15:39:55;;;;;;;6.55;5.28;;;27.00;99.90;;;;;;4741232;30;20028;-92
2022/05/15 15:42:22;;;;;;;9.52;4.82;;;27.20;99.90;;;;;;4763844;30;20193;-91
2022/05/15 15:44:50;;;;;;;7.07;5.00;;;27.20;99.90;;;;;;4773575;30;20036;-92
2022/05/15 15:47:17;;;;;;;7.82;5.13;;;27.20;99.90;;;;;;4773256;30;20047;-92
2022/05/15 15:49:43;;;;;;;7.03;5.40;;;27.20;99.90;;;;;;4744889;30;20031;-93
2022/05/15 15:52:10;;;;;;;7.28;5.07;;;27.20;99.90;;;;;;4761971;30;20065;-94
2022/05/15 15:54:36;;;;;;;8.35;5.57;;;27.10;99.90;;;;;;4746196;30;20094;-93
2022/05/15 15:57:03;;;;;;;8.88;4.95;;;27.00;99.90;;;;;;4774029;30;20047;-93
2022/05/15 15:59:29;;;;;;;8.50;5.28;;;27.10;99.90;;;;;;4744110;30;20031;-93
2022/05/15 16:01:56;;;;;;;11.18;5.25;;;27.10;99.90;;;;;;4773620;30;20082;-93
2022/05/15 16:04:23;;;;;;;7.40;4.90;;;27.10;99.90;;;;;;4776414;30;20031;-92
2022/05/15 16:06:49;;;;;;;8.30;4.72;;;27.30;99.90;;;;;;4747155;30;20130;-92
2022/05/15 16:09:16;;;;;;;8.80;5.13;;;27.30;99.90;;;;;;4774791;30;20032;-93
2022/05/15 16:11:45;;;;;;;8.57;5.75;;;27.50;99.90;;;;;;4773635;30;20055;-93
2022/05/15 16:14:13;;;;;;;9.38;5.50;;;27.50;99.90;;;;;;4773445;30;20036;-92
2022/05/15 16:16:41;;;;;;;8.20;5.10;;;27.60;99.90;;;;;;4775157;30;20044;-93
2022/05/15 16:19:12;;;;;;;7.55;5.28;;;27.60;99.90;;;;;;4774400;30;20040;-92
2022/05/15 16:21:48;;;;;;;9.65;5.00;;;27.50;99.90;;;;;;4774878;30;20036;-93
2022/05/15 16:24:20;;;;;;;10.02;5.30;;;27.20;99.90;;;;;;4775153;30;20554;-93
2022/05/15 16:26:51;;;;;;;7.90;5.18;;;27.10;99.90;;;;;;4774917;30;20127;-93
2022/05/15 16:29:18;;;;;;;11.50;6.13;;;27.00;99.90;;;;;;4774998;30;20036;-93
2022/05/15 16:31:46;;;;;;;10.05;5.45;;;27.00;99.90;;;;;;4774543;30;20177;-93
2022/05/15 16:34:13;;;;;;;9.55;6.10;;;27.00;99.90;;;;;;4773247;30;20047;-92
2022/05/15 16:36:41;;;;;;;8.35;5.22;;;26.90;99.90;;;;;;4773489;30;20051;-93
2022/05/15 16:39:08;;;;;;;7.93;5.68;;;26.80;99.90;;;;;;4772824;30;20031;-91
2022/05/15 16:41:35;;;;;;;8.93;5.13;;;26.70;99.90;;;;;;4772389;30;20039;-91
2022/05/15 16:44:01;;;;;;;10.55;5.43;;;26.70;99.90;;;;;;4772726;30;20042;-91
2022/05/15 16:46:28;;;;;;;10.07;5.95;;;26.70;99.90;;;;;;4778898;30;20042;-94
2022/05/15 16:48:55;;;;;;;8.93;5.63;;;26.60;99.90;;;;;;4777820;30;20066;-94
2022/05/15 16:51:21;;;;;;;10.43;6.18;;;26.50;99.90;;;;;;4747190;30;20036;-92
2022/05/15 16:54:00;;;;;;;9.32;5.63;;;26.40;99.90;;;;;;4773547;30;20042;-92
2022/05/15 16:56:27;;;;;;;7.28;5.32;;;26.40;99.90;;;;;;4742748;30;20138;-92
2022/05/15 16:58:54;;;;;;;7.55;5.43;;;26.20;99.90;;;;;;4773515;30;20035;-94
2022/05/15 17:01:20;;;;;;;7.18;5.38;;;26.00;99.90;;;;;;4773015;30;20498;-93
2022/05/15 17:03:46;;;;;;;10.30;5.65;;;25.80;99.90;;;;;;4742941;30;20036;-92
2022/05/15 17:06:13;;;;;;;7.93;5.47;;;25.80;99.90;;;;;;4772187;30;20039;-92
2022/05/15 17:08:40;;;;;;;9.90;5.93;;;25.80;99.90;;;;;;4772145;30;20149;-93
2022/05/15 17:11:07;;;;;;;8.07;5.43;;;25.70;99.90;;;;;;4771839;30;20490;-94
2022/05/15 17:13:33;;;;;;;9.18;5.65;;;25.70;99.90;;;;;;4742438;30;20121;-94
2022/05/15 17:16:00;;;;;;;14.52;6.05;;;25.60;99.90;;;;;;4772120;30;20127;-92
2022/05/15 17:18:27;;;;;;;10.02;5.95;;;25.60;99.90;;;;;;4771719;30;20032;-93
2022/05/15 17:20:55;;;;;;;9.60;5.97;;;25.60;99.90;;;;;;4771942;30;20170;-92
2022/05/15 17:23:23;;;;;;;9.27;6.10;;;25.40;99.90;;;;;;4742439;30;20032;-93
2022/05/15 17:25:50;;;;;;;11.35;6.10;;;25.30;99.90;;;;;;4742400;30;20036;-91
2022/05/15 17:36:34;;;;;;;40.03;19.02;;;25.10;99.90;;;;;;4757071;30;20046;-92
2022/05/15 17:39:00;;;;;;;15.95;9.25;;;25.00;99.90;;;;;;4771894;30;20091;-93
2022/05/15 17:41:26;;;;;;;12.02;7.13;;;24.90;99.90;;;;;;4771498;30;20040;-91
2022/05/15 17:44:03;;;;;;;10.63;7.13;;;24.80;99.90;;;;;;4772482;30;20044;-93
2022/05/15 17:46:29;;;;;;;10.45;6.93;;;24.70;99.90;;;;;;4772236;30;20138;-92
2022/05/15 17:48:56;;;;;;;9.68;6.78;;;24.60;99.90;;;;;;4756760;30;20039;-92
2022/05/15 17:51:22;;;;;;;10.27;6.13;;;24.50;99.90;;;;;;4742031;30;20034;-92
2022/05/15 17:53:49;;;;;;;8.52;6.55;;;24.40;99.90;;;;;;4742903;30;20036;-92
2022/05/15 17:56:15;;;;;;;8.40;6.05;;;24.20;99.90;;;;;;4771806;30;20040;-92
2022/05/15 17:58:45;;;;;;;12.63;6.22;;;24.10;99.90;;;;;;4757283;30;20055;-93
2022/05/15 18:01:12;;;;;;;12.10;6.13;;;24.10;99.90;;;;;;4772289;30;20043;-91
2022/05/15 18:03:38;;;;;;;10.60;6.50;;;24.10;99.90;;;;;;4771742;30;20035;-92
2022/05/15 18:06:05;;;;;;;10.52;6.15;;;24.00;99.90;;;;;;4771190;30;20040;-91
2022/05/15 18:08:31;;;;;;;8.88;6.70;;;24.00;99.90;;;;;;4771488;30;20043;-92
2022/05/15 18:11:01;;;;;;;13.52;6.38;;;23.90;99.90;;;;;;4771389;30;20035;-93
2022/05/15 18:13:27;;;;;;;14.55;7.15;;;23.80;99.90;;;;;;4742255;30;20042;-92
2022/05/15 18:15:54;;;;;;;12.90;7.13;;;23.80;99.90;;;;;;4756792;30;20081;-92
2022/05/15 18:18:20;;;;;;;12.23;6.93;;;23.70;99.90;;;;;;4741892;30;20035;-93
2022/05/15 18:20:47;;;;;;;9.35;6.75;;;23.60;99.90;;;;;;4771306;30;20042;-93
2022/05/15 18:23:14;;;;;;;10.82;7.05;;;23.50;99.90;;;;;;4771093;30;20114;-94
2022/05/15 18:25:41;;;;;;;11.88;7.20;;;23.40;99.90;;;;;;4771032;30;20520;-92
2022/05/15 18:28:08;;;;;;;12.75;7.10;;;23.30;99.90;;;;;;4741313;30;20114;-91
2022/05/15 18:30:35;;;;;;;11.55;6.55;;;23.30;99.90;;;;;;4770595;30;20043;-93
2022/05/15 18:33:02;;;;;;;10.65;6.88;;;23.30;99.90;;;;;;4770814;30;20497;-93
2022/05/15 18:35:29;;;;;;;15.40;7.05;;;23.30;99.90;;;;;;4772654;30;20050;-94
2022/05/15 18:37:56;;;;;;;10.70;7.22;;;23.30;99.90;;;;;;4777759;30;20089;-93
2022/05/15 18:40:23;;;;;;;15.43;7.13;;;23.40;99.90;;;;;;4748818;30;20036;-93
2022/05/15 18:42:51;;;;;;;11.70;7.20;;;23.40;99.90;;;;;;4744823;30;20429;-94
2022/05/15 18:45:19;;;;;;;15.70;8.13;;;23.20;99.90;;;;;;4748015;30;20402;-93
2022/05/15 18:47:46;;;;;;;15.23;8.13;;;23.10;99.90;;;;;;4781622;30;20042;-94
2022/05/15 18:55:49;;;;;;;21.33;9.02;;;23.10;99.90;;;;;;4760091;30;20036;-94
2022/05/15 18:58:18;;;;;;;19.42;10.35;;;23.00;99.90;;;;;;4771446;30;20039;-94
2022/05/15 19:00:49;;;;;;;13.15;8.18;;;22.90;99.90;;;;;;4743897;30;20060;-94
2022/05/15 19:03:24;;;;;;;18.98;9.05;;;22.80;99.90;;;;;;4802494;24;20062;-94
2022/05/15 19:05:56;;;;;;;13.05;8.80;;;22.80;99.90;;;;;;4777515;29;20043;-93
2022/05/15 19:08:38;;;;;;;15.40;9.35;;;22.70;99.90;;;;;;4787222;29;20026;-95
2022/05/15 19:11:09;;;;;;;13.43;8.82;;;22.70;99.90;;;;;;4763758;29;20122;-94
2022/05/15 19:13:38;;;;;;;16.70;9.23;;;22.60;99.90;;;;;;4793672;29;20042;-94
2022/05/15 19:16:10;;;;;;;14.40;9.23;;;22.60;99.90;;;;;;4791994;29;20175;-94
2022/05/15 19:18:46;;;;;;;17.83;9.93;;;22.60;99.90;;;;;;4792498;29;20122;-93
2022/05/15 19:21:13;;;;;;;17.55;10.18;;;22.40;99.90;;;;;;4777320;29;20039;-93
2022/05/15 19:23:40;;;;;;;21.35;11.07;;;22.50;99.90;;;;;;4792466;29;20389;-92
2022/05/15 19:26:07;;;;;;;17.65;9.73;;;22.40;99.90;;;;;;4792060;29;20035;-92
2022/05/15 19:28:36;;;;;;;17.25;10.82;;;22.40;99.90;;;;;;4794338;29;20035;-92
2022/05/15 19:31:04;;;;;;;24.88;10.95;;;22.40;99.90;;;;;;4792989;29;20035;-93
2022/05/15 19:33:32;;;;;;;16.83;10.68;;;22.30;99.90;;;;;;4793486;29;20529;-93
2022/05/15 19:36:02;;;;;;;18.52;10.73;;;22.20;99.90;;;;;;4779484;29;20047;-93
2022/05/15 19:38:28;;;;;;;14.75;10.32;;;23.00;99.90;;;;;;4792274;29;20062;-93
2022/05/15 19:41:31;;;;;;;17.80;9.23;;;22.40;99.90;;;;;;4799711;29;20011;-95
2022/05/15 19:43:59;;;;;;;14.63;9.10;;;22.20;99.90;;;;;;4791102;29;20046;-87
2022/05/15 19:46:26;;;;;;;12.65;8.70;;;24.10;99.90;;;;;;4790387;29;20401;-85
2022/05/15 19:48:54;;;;;;;12.93;7.90;;;24.70;99.90;;;;;;4791987;29;20390;-87
2022/05/15 19:51:21;;;;;;;10.32;8.30;;;24.70;99.90;;;;;;4791531;29;20489;-91
2022/05/15 19:53:48;;;;;;;11.40;7.53;;;24.20;99.90;;;;;;4791208;29;20038;-91
2022/05/15 19:56:30;;;;;;;12.25;7.75;;;23.60;99.90;;;;;;4791729;29;20115;-92
2022/05/15 19:58:58;;;;;;;11.50;8.00;;;23.00;99.90;;;;;;4791367;29;20074;-92
2022/05/15 20:01:28;;;;;;;16.08;8.50;;;22.60;99.90;;;;;;4791026;29;20038;-92
2022/05/15 20:03:59;;;;;;;18.83;9.68;;;22.20;99.90;;;;;;4790946;29;20051;-91
2022/05/15 20:12:15;;;;;;;22.42;10.82;;;21.60;99.90;;;;;;4777208;30;20047;-90
2022/05/15 20:14:48;;;;;;;21.15;11.60;;;21.50;99.90;;;;;;4769969;30;20035;-90
2022/05/15 20:17:19;;;;;;;25.17;12.18;;;21.40;99.90;;;;;;4783963;30;20039;-90
2022/05/15 20:19:45;;;;;;;22.48;11.65;;;21.40;99.90;;;;;;4766276;30;20039;-89
2022/05/15 20:22:16;;;;;;;20.85;12.00;;;21.30;99.90;;;;;;4772140;30;20036;-91
2022/05/15 20:24:43;;;;;;;20.55;10.90;;;21.30;99.90;;;;;;4770177;30;20138;-89
2022/05/15 20:27:10;;;;;;;19.30;9.07;;;21.30;99.90;;;;;;4760440;30;20494;-90
2022/05/15 20:29:37;;;;;;;19.55;9.77;;;21.30;99.90;;;;;;4775066;30;20047;-89
2022/05/15 20:32:04;;;;;;;17.00;9.73;;;21.20;99.90;;;;;;4760041;30;20036;-88
2022/05/15 20:34:31;;;;;;;20.27;11.00;;;21.20;99.90;;;;;;4760311;30;20047;-91
2022/05/15 20:37:00;;;;;;;19.17;9.98;;;21.10;99.90;;;;;;4760306;30;20089;-90
2022/05/15 20:39:31;;;;;;;18.25;10.32;;;20.90;99.90;;;;;;4781179;29;20068;-90
2022/05/15 20:42:00;;;;;;;20.13;9.70;;;20.70;99.90;;;;;;4793616;29;20130;-90
2022/05/15 20:44:27;;;;;;;19.92;10.85;;;20.60;99.90;;;;;;4793502;29;20047;-90
2022/05/15 20:46:54;;;;;;;15.15;9.10;;;20.50;99.90;;;;;;4793977;29;20034;-91
2022/05/15 20:49:21;;;;;;;20.65;10.80;;;20.30;99.90;;;;;;4793538;29;20099;-90
2022/05/15 20:51:49;;;;;;;16.02;10.43;;;20.30;99.90;;;;;;4794149;29;20114;-90
2022/05/15 20:54:20;;;;;;;17.83;10.18;;;20.20;99.90;;;;;;4793556;29;20042;-90
2022/05/15 20:56:46;;;;;;;17.98;10.30;;;20.10;99.90;;;;;;4793610;29;20579;-89
2022/05/15 20:59:14;;;;;;;19.92;10.82;;;20.00;99.90;;;;;;4793131;29;20035;-90
2022/05/15 21:01:43;;;;;;;16.90;10.27;;;20.00;99.90;;;;;;4793136;29;20454;-89
2022/05/15 21:04:13;;;;;;;17.45;10.30;;;20.00;99.90;;;;;;4793063;29;20054;-89
2022/05/15 21:06:42;;;;;;;20.83;10.50;;;20.00;99.90;;;;;;4793241;29;20129;-89
2022/05/15 21:09:08;;;;;;;22.38;10.23;;;20.00;99.90;;;;;;4792996;29;20035;-90
2022/05/15 21:11:35;;;;;;;20.60;11.00;;;20.00;99.90;;;;;;4792914;29;20035;-90
2022/05/15 21:14:02;;;;;;;18.83;10.30;;;20.00;99.90;;;;;;4792888;29;20039;-89
2022/05/15 21:16:29;;;;;;;18.27;9.63;;;20.00;99.90;;;;;;4792969;29;20045;-90
2022/05/15 21:18:57;;;;;;;17.95;10.30;;;19.90;99.90;;;;;;4793071;29;20027;-89
2022/05/15 21:21:24;;;;;;;19.55;10.35;;;19.90;99.90;;;;;;4793174;29;20042;-90
2022/05/15 21:23:52;;;;;;;17.88;10.35;;;19.80;99.90;;;;;;4792055;29;20039;-90
2022/05/15 21:26:20;;;;;;;19.23;9.75;;;19.70;99.90;;;;;;4792831;29;20088;-89
2022/05/15 21:28:48;;;;;;;18.80;11.05;;;19.60;99.90;;;;;;4777742;29;20031;-89
2022/05/15 21:31:15;;;;;;;23.70;11.77;;;19.50;99.90;;;;;;4792495;29;20027;-88
2022/05/15 21:33:42;;;;;;;27.52;12.45;;;19.50;99.90;;;;;;4792547;29;20035;-90
2022/05/15 21:36:08;;;;;;;30.35;13.82;;;19.40;99.90;;;;;;4792459;29;20038;-90
2022/05/15 21:44:11;;;;;;;28.38;12.75;;;19.30;99.90;;;;;;4792853;29;20054;-90
2022/05/15 21:46:38;;;;;;;27.70;12.50;;;19.30;99.90;;;;;;4792308;29;20462;-89
2022/05/15 21:49:05;;;;;;;29.55;14.13;;;19.30;99.90;;;;;;4792109;29;20038;-89
2022/05/15 21:51:31;;;;;;;34.85;14.00;;;19.20;99.90;;;;;;4792320;29;20464;-90
2022/05/15 21:53:58;;;;;;;30.58;14.77;;;19.20;99.90;;;;;;4792273;29;20031;-90
2022/05/15 21:56:25;;;;;;;29.42;13.15;;;19.10;99.90;;;;;;4792358;29;20039;-89
2022/05/15 22:01:37;;;;;;;24.85;12.95;;;19.00;99.90;;;;;;4792271;29;20035;-89
2022/05/15 22:04:04;;;;;;;23.48;11.90;;;19.00;99.90;;;;;;4792177;29;20051;-91
2022/05/15 22:06:31;;;;;;;21.73;12.65;;;18.90;99.90;;;;;;4792231;29;20108;-90
2022/05/15 22:08:58;;;;;;;20.35;11.93;;;18.90;99.90;;;;;;4792070;29;20031;-91
2022/05/15 22:11:25;;;;;;;24.33;11.27;;;18.80;99.90;;;;;;4792055;29;20030;-90
2022/05/15 22:13:51;;;;;;;21.83;11.68;;;18.70;99.90;;;;;;4791843;29;20031;-90
2022/05/15 22:16:18;;;;;;;23.60;12.20;;;18.70;99.90;;;;;;4791875;29;20043;-89
2022/05/15 22:18:45;;;;;;;28.00;12.32;;;18.60;99.90;;;;;;4791712;29;20055;-90
2022/05/15 22:21:12;;;;;;;22.58;12.20;;;18.60;99.90;;;;;;4792000;29;20046;-89
2022/05/15 22:23:39;;;;;;;24.55;12.13;;;18.60;99.90;;;;;;4792103;29;20054;-90
2022/05/15 22:26:07;;;;;;;21.50;11.40;;;18.60;99.90;;;;;;4791676;29;20114;-90
2022/05/15 22:28:35;;;;;;;22.25;13.05;;;18.60;99.90;;;;;;4791659;29;20485;-89
2022/05/15 22:31:01;;;;;;;25.05;11.70;;;18.60;99.90;;;;;;4791864;29;20092;-88
2022/05/15 22:33:28;;;;;;;18.73;12.32;;;18.50;99.90;;;;;;4791566;29;20152;-90
2022/05/15 22:35:59;;;;;;;18.60;11.73;;;18.50;99.90;;;;;;4790823;29;20130;-90
2022/05/15 22:38:26;;;;;;;20.50;11.63;;;18.50;99.90;;;;;;4791538;29;20042;-89
2022/05/15 22:40:53;;;;;;;21.92;13.15;;;18.50;99.90;;;;;;4791630;29;20547;-91
2022/05/15 22:43:21;;;;;;;17.13;11.15;;;18.40;99.90;;;;;;4791634;29;20515;-88
2022/05/15 22:45:49;;;;;;;19.05;11.60;;;18.40;99.90;;;;;;4791468;29;20489;-89
2022/05/15 22:48:17;;;;;;;24.38;11.10;;;18.40;99.90;;;;;;4791431;29;20042;-90
2022/05/15 22:50:44;;;;;;;22.08;10.88;;;18.40;99.90;;;;;;4791485;29;20026;-89
2022/05/15 22:53:11;;;;;;;20.50;11.35;;;18.40;99.90;;;;;;4791398;29;20034;-89
2022/05/15 22:55:39;;;;;;;21.83;11.75;;;18.40;99.90;;;;;;4791188;29;20493;-90
2022/05/15 22:58:07;;;;;;;19.15;12.25;;;18.40;99.90;;;;;;4791425;29;20125;-89
2022/05/15 23:00:35;;;;;;;21.27;11.57;;;18.40;99.90;;;;;;4791469;29;20481;-91
2022/05/15 23:03:02;;;;;;;19.95;10.85;;;18.40;99.90;;;;;;4790921;29;20088;-89
2022/05/15 23:08:16;;;;;;;25.20;11.65;;;18.20;99.90;;;;;;4791209;29;20493;-89
2022/05/15 23:10:43;;;;;;;18.20;11.68;;;18.20;99.90;;;;;;4791041;29;20031;-90
2022/05/15 23:13:10;;;;;;;22.25;11.63;;;18.10;99.90;;;;;;4791006;29;20058;-89
2022/05/15 23:15:37;;;;;;;22.60;12.77;;;18.10;99.90;;;;;;4791025;29;20180;-89
2022/05/15 23:18:05;;;;;;;19.02;12.32;;;18.10;99.90;;;;;;4791071;29;20038;-89
2022/05/15 23:20:32;;;;;;;24.23;13.82;;;18.10;99.90;;;;;;4791352;29;20038;-90
2022/05/15 23:22:59;;;;;;;24.25;13.95;;;18.10;99.90;;;;;;4790967;29;20037;-90
2022/05/15 23:25:25;;;;;;;28.27;15.13;;;18.00;99.90;;;;;;4791020;29;20027;-91
2022/05/15 23:27:52;;;;;;;30.52;16.25;;;17.90;99.90;;;;;;4791080;29;20122;-91
2022/05/15 23:30:19;;;;;;;33.78;17.35;;;17.90;99.90;;;;;;4790989;29;20030;-89
2022/05/15 23:32:46;;;;;;;36.20;17.67;;;17.80;99.90;;;;;;4790977;29;20481;-89
2022/05/15 23:35:14;;;;;;;38.38;19.95;;;17.80;99.90;;;;;;4790975;29;20057;-89
2022/05/15 23:37:41;;;;;;;41.28;19.23;;;17.80;99.90;;;;;;4790859;29;20443;-90
2022/05/15 23:40:08;;;;;;;47.05;20.88;;;17.80;99.90;;;;;;4790875;29;20043;-90
2022/05/15 23:42:34;;;;;;;42.97;19.58;;;17.70;99.90;;;;;;4791209;29;20027;-89
2022/05/15 23:45:01;;;;;;;41.33;20.75;;;17.70;99.90;;;;;;4791229;29;20035;-89
2022/05/15 23:47:27;;;;;;;48.15;21.52;;;17.70;99.90;;;;;;4792669;29;20125;-89
2022/05/15 23:49:54;;;;;;;40.03;19.58;;;17.70;99.90;;;;;;4797087;29;20027;-88
2022/05/15 23:52:24;;;;;;;40.47;18.75;;;17.70;99.90;;;;;;4799957;29;20047;-91
2022/05/15 23:54:52;;;;;;;44.08;18.98;;;17.70;99.90;;;;;;4777348;29;20109;-89
2022/05/15 23:57:19;;;;;;;36.20;18.73;;;17.70;99.90;;;;;;4795810;29;20130;-91
2022/05/15 23:59:45;;;;;;;40.83;18.77;;;17.70;99.90;;;;;;4795814;29;20031;-91
